sensor_id;sensor_type;location;lat;lon;timestamp;P1;durP1;ratioP1;P2;durP2;ratioP2
27491;SDS011;14927;51.210;6.838;2023-06-10T00:02:15;9.65;;;5.25;;
27491;SDS011;14927;51.210;6.838;2023-06-10T00:05:00;7.88;;;5.50;;
27491;SDS011;14927;51.210;6.838;2023-06-10T00:07:45;9.48;;;5.35;;
27491;SDS011;14927;51.210;6.838;2023-06-10T00:10:30;10.00;;;5.47;;
27491;SDS011;14927;51.210;6.838;2023-06-10T00:13:14;7.95;;;5.45;;
27491;SDS011;14927;51.210;6.838;2023-06-10T00:16:00;11.02;;;5.32;;
27491;SDS011;14927;51.210;6.838;2023-06-10T00:18:45;11.88;;;6.10;;
27491;SDS011;14927;51.210;6.838;2023-06-10T00:21:31;7.70;;;5.43;;
27491;SDS011;14927;51.210;6.838;2023-06-10T00:24:24;6.65;;;5.00;;
27491;SDS011;14927;51.210;6.838;2023-06-10T00:27:08;9.07;;;5.20;;
27491;SDS011;14927;51.210;6.838;2023-06-10T00:29:53;7.70;;;5.50;;
27491;SDS011;14927;51.210;6.838;2023-06-10T00:32:37;6.35;;;4.88;;
27491;SDS011;14927;51.210;6.838;2023-06-10T00:35:22;6.70;;;5.25;;
27491;SDS011;14927;51.210;6.838;2023-06-10T00:38:07;10.02;;;5.53;;
27491;SDS011;14927;51.210;6.838;2023-06-10T00:40:52;8.52;;;4.97;;
27491;SDS011;14927;51.210;6.838;2023-06-10T00:43:37;9.05;;;4.45;;
27491;SDS011;14927;51.210;6.838;2023-06-10T00:46:22;8.65;;;5.15;;
27491;SDS011;14927;51.210;6.838;2023-06-10T00:49:09;7.45;;;5.43;;
27491;SDS011;14927;51.210;6.838;2023-06-10T00:51:54;11.05;;;5.97;;
27491;SDS011;14927;51.210;6.838;2023-06-10T00:54:39;8.10;;;5.57;;
27491;SDS011;14927;51.210;6.838;2023-06-10T00:57:24;7.50;;;5.28;;
27491;SDS011;14927;51.210;6.838;2023-06-10T01:00:09;8.10;;;5.55;;
27491;SDS011;14927;51.210;6.838;2023-06-10T01:02:55;8.40;;;5.28;;
27491;SDS011;14927;51.210;6.838;2023-06-10T01:05:40;12.23;;;6.20;;
27491;SDS011;14927;51.210;6.838;2023-06-10T01:11:50;7.38;;;5.38;;
27491;SDS011;14927;51.210;6.838;2023-06-10T01:14:52;11.93;;;5.72;;
27491;SDS011;14927;51.210;6.838;2023-06-10T01:20:46;7.75;;;5.03;;
27491;SDS011;14927;51.210;6.838;2023-06-10T01:23:32;6.30;;;5.28;;
27491;SDS011;14927;51.210;6.838;2023-06-10T01:26:16;6.68;;;5.38;;
27491;SDS011;14927;51.210;6.838;2023-06-10T01:29:07;8.52;;;5.32;;
27491;SDS011;14927;51.210;6.838;2023-06-10T01:32:07;7.47;;;5.80;;
27491;SDS011;14927;51.210;6.838;2023-06-10T01:35:01;7.03;;;6.00;;
27491;SDS011;14927;51.210;6.838;2023-06-10T01:37:47;8.10;;;5.32;;
27491;SDS011;14927;51.210;6.838;2023-06-10T01:40:34;6.30;;;5.68;;
27491;SDS011;14927;51.210;6.838;2023-06-10T01:43:20;6.78;;;5.70;;
27491;SDS011;14927;51.210;6.838;2023-06-10T01:46:05;8.35;;;6.15;;
27491;SDS011;14927;51.210;6.838;2023-06-10T01:48:50;6.13;;;5.45;;
27491;SDS011;14927;51.210;6.838;2023-06-10T01:51:35;7.03;;;5.38;;
27491;SDS011;14927;51.210;6.838;2023-06-10T01:54:19;6.70;;;5.43;;
27491;SDS011;14927;51.210;6.838;2023-06-10T01:57:04;8.15;;;6.25;;
27491;SDS011;14927;51.210;6.838;2023-06-10T01:59:49;7.00;;;5.55;;
27491;SDS011;14927;51.210;6.838;2023-06-10T02:02:34;7.22;;;5.82;;
27491;SDS011;14927;51.210;6.838;2023-06-10T02:05:19;10.05;;;6.50;;
27491;SDS011;14927;51.210;6.838;2023-06-10T02:08:03;9.57;;;5.72;;
27491;SDS011;14927;51.210;6.838;2023-06-10T02:10:48;7.35;;;5.82;;
27491;SDS011;14927;51.210;6.838;2023-06-10T02:13:33;7.63;;;5.53;;
27491;SDS011;14927;51.210;6.838;2023-06-10T02:16:18;6.97;;;6.28;;
27491;SDS011;14927;51.210;6.838;2023-06-10T02:19:04;7.70;;;5.55;;
27491;SDS011;14927;51.210;6.838;2023-06-10T02:21:50;9.02;;;5.88;;
27491;SDS011;14927;51.210;6.838;2023-06-10T02:24:36;9.30;;;6.75;;
27491;SDS011;14927;51.210;6.838;2023-06-10T02:27:21;9.13;;;6.97;;
27491;SDS011;14927;51.210;6.838;2023-06-10T02:30:06;9.52;;;6.63;;
27491;SDS011;14927;51.210;6.838;2023-06-10T02:32:54;7.63;;;6.10;;
27491;SDS011;14927;51.210;6.838;2023-06-10T02:35:39;9.30;;;6.68;;
27491;SDS011;14927;51.210;6.838;2023-06-10T02:38:24;7.97;;;5.30;;
27491;SDS011;14927;51.210;6.838;2023-06-10T02:41:08;8.50;;;5.82;;
27491;SDS011;14927;51.210;6.838;2023-06-10T02:43:53;8.98;;;5.53;;
27491;SDS011;14927;51.210;6.838;2023-06-10T02:46:37;7.47;;;5.50;;
27491;SDS011;14927;51.210;6.838;2023-06-10T02:49:22;7.78;;;6.07;;
27491;SDS011;14927;51.210;6.838;2023-06-10T02:52:07;7.32;;;5.72;;
27491;SDS011;14927;51.210;6.838;2023-06-10T02:54:51;10.32;;;5.97;;
27491;SDS011;14927;51.210;6.838;2023-06-10T02:57:36;6.13;;;5.53;;
27491;SDS011;14927;51.210;6.838;2023-06-10T03:00:21;8.60;;;5.72;;
27491;SDS011;14927;51.210;6.838;2023-06-10T03:03:06;12.60;;;6.85;;
27491;SDS011;14927;51.210;6.838;2023-06-10T03:05:51;7.53;;;5.63;;
27491;SDS011;14927;51.210;6.838;2023-06-10T03:08:36;7.03;;;6.22;;
27491;SDS011;14927;51.210;6.838;2023-06-10T03:11:21;8.70;;;5.88;;
27491;SDS011;14927;51.210;6.838;2023-06-10T03:14:07;8.00;;;6.07;;
27491;SDS011;14927;51.210;6.838;2023-06-10T03:16:52;7.32;;;5.53;;
27491;SDS011;14927;51.210;6.838;2023-06-10T03:19:37;7.07;;;5.60;;
27491;SDS011;14927;51.210;6.838;2023-06-10T03:22:22;9.60;;;5.90;;
27491;SDS011;14927;51.210;6.838;2023-06-10T03:25:07;8.85;;;6.25;;
27491;SDS011;14927;51.210;6.838;2023-06-10T03:27:57;6.97;;;6.00;;
27491;SDS011;14927;51.210;6.838;2023-06-10T03:30:42;10.40;;;6.20;;
27491;SDS011;14927;51.210;6.838;2023-06-10T03:33:27;9.00;;;6.07;;
27491;SDS011;14927;51.210;6.838;2023-06-10T03:36:12;8.93;;;6.57;;
27491;SDS011;14927;51.210;6.838;2023-06-10T03:38:57;7.50;;;6.07;;
27491;SDS011;14927;51.210;6.838;2023-06-10T03:41:42;10.45;;;6.57;;
27491;SDS011;14927;51.210;6.838;2023-06-10T03:44:26;10.35;;;6.45;;
27491;SDS011;14927;51.210;6.838;2023-06-10T03:47:11;10.15;;;6.43;;
27491;SDS011;14927;51.210;6.838;2023-06-10T03:49:56;10.35;;;6.88;;
27491;SDS011;14927;51.210;6.838;2023-06-10T03:52:41;7.13;;;5.75;;
27491;SDS011;14927;51.210;6.838;2023-06-10T03:55:26;10.10;;;6.32;;
27491;SDS011;14927;51.210;6.838;2023-06-10T03:58:11;8.15;;;6.70;;
27491;SDS011;14927;51.210;6.838;2023-06-10T04:00:58;7.18;;;6.10;;
27491;SDS011;14927;51.210;6.838;2023-06-10T04:03:43;9.82;;;6.55;;
27491;SDS011;14927;51.210;6.838;2023-06-10T04:06:28;10.15;;;6.63;;
27491;SDS011;14927;51.210;6.838;2023-06-10T04:09:12;8.93;;;6.95;;
27491;SDS011;14927;51.210;6.838;2023-06-10T04:11:57;8.35;;;6.68;;
27491;SDS011;14927;51.210;6.838;2023-06-10T04:14:42;9.57;;;6.97;;
27491;SDS011;14927;51.210;6.838;2023-06-10T04:17:27;9.40;;;6.75;;
27491;SDS011;14927;51.210;6.838;2023-06-10T04:20:11;8.20;;;6.20;;
27491;SDS011;14927;51.210;6.838;2023-06-10T04:22:56;8.52;;;6.45;;
27491;SDS011;14927;51.210;6.838;2023-06-10T04:25:41;10.27;;;7.18;;
27491;SDS011;14927;51.210;6.838;2023-06-10T04:28:25;8.88;;;6.47;;
27491;SDS011;14927;51.210;6.838;2023-06-10T04:31:10;9.10;;;6.30;;
27491;SDS011;14927;51.210;6.838;2023-06-10T04:33:55;9.75;;;6.75;;
27491;SDS011;14927;51.210;6.838;2023-06-10T04:36:40;8.23;;;6.63;;
27491;SDS011;14927;51.210;6.838;2023-06-10T04:39:24;9.73;;;6.10;;
27491;SDS011;14927;51.210;6.838;2023-06-10T04:42:09;8.95;;;6.35;;
27491;SDS011;14927;51.210;6.838;2023-06-10T04:44:54;8.80;;;6.50;;
27491;SDS011;14927;51.210;6.838;2023-06-10T04:47:39;9.88;;;6.10;;
27491;SDS011;14927;51.210;6.838;2023-06-10T04:50:24;9.02;;;7.03;;
27491;SDS011;14927;51.210;6.838;2023-06-10T04:53:09;14.63;;;6.57;;
27491;SDS011;14927;51.210;6.838;2023-06-10T04:55:54;10.90;;;6.82;;
27491;SDS011;14927;51.210;6.838;2023-06-10T04:58:41;9.90;;;6.65;;
27491;SDS011;14927;51.210;6.838;2023-06-10T05:01:25;8.38;;;6.32;;
27491;SDS011;14927;51.210;6.838;2023-06-10T05:04:18;9.27;;;5.82;;
27491;SDS011;14927;51.210;6.838;2023-06-10T05:07:02;8.85;;;6.40;;
27491;SDS011;14927;51.210;6.838;2023-06-10T05:09:48;8.98;;;6.57;;
27491;SDS011;14927;51.210;6.838;2023-06-10T05:12:33;10.48;;;6.53;;
27491;SDS011;14927;51.210;6.838;2023-06-10T05:15:18;7.60;;;6.03;;
27491;SDS011;14927;51.210;6.838;2023-06-10T05:18:06;8.07;;;5.90;;
27491;SDS011;14927;51.210;6.838;2023-06-10T05:20:51;12.32;;;6.53;;
27491;SDS011;14927;51.210;6.838;2023-06-10T05:23:38;9.45;;;6.18;;
27491;SDS011;14927;51.210;6.838;2023-06-10T05:26:25;9.48;;;5.80;;
27491;SDS011;14927;51.210;6.838;2023-06-10T05:29:11;7.70;;;5.55;;
27491;SDS011;14927;51.210;6.838;2023-06-10T05:31:55;8.77;;;5.65;;
27491;SDS011;14927;51.210;6.838;2023-06-10T05:34:41;11.40;;;5.13;;
27491;SDS011;14927;51.210;6.838;2023-06-10T05:37:26;7.15;;;5.93;;
27491;SDS011;14927;51.210;6.838;2023-06-10T05:40:11;6.10;;;4.95;;
27491;SDS011;14927;51.210;6.838;2023-06-10T05:42:56;9.57;;;5.28;;
27491;SDS011;14927;51.210;6.838;2023-06-10T05:45:41;9.35;;;5.00;;
27491;SDS011;14927;51.210;6.838;2023-06-10T05:48:25;7.32;;;5.22;;
27491;SDS011;14927;51.210;6.838;2023-06-10T05:51:10;10.38;;;5.10;;
27491;SDS011;14927;51.210;6.838;2023-06-10T05:53:55;7.93;;;5.50;;
27491;SDS011;14927;51.210;6.838;2023-06-10T05:56:39;9.23;;;5.20;;
27491;SDS011;14927;51.210;6.838;2023-06-10T05:59:24;8.07;;;4.72;;
27491;SDS011;14927;51.210;6.838;2023-06-10T06:02:09;8.32;;;4.60;;
27491;SDS011;14927;51.210;6.838;2023-06-10T06:04:54;8.40;;;5.10;;
27491;SDS011;14927;51.210;6.838;2023-06-10T06:07:39;5.55;;;4.45;;
27491;SDS011;14927;51.210;6.838;2023-06-10T06:10:24;7.75;;;5.30;;
27491;SDS011;14927;51.210;6.838;2023-06-10T06:13:08;5.05;;;4.53;;
27491;SDS011;14927;51.210;6.838;2023-06-10T06:15:53;10.00;;;5.43;;
27491;SDS011;14927;51.210;6.838;2023-06-10T06:18:38;8.95;;;4.75;;
27491;SDS011;14927;51.210;6.838;2023-06-10T06:21:22;8.90;;;4.57;;
27491;SDS011;14927;51.210;6.838;2023-06-10T06:24:07;7.40;;;4.78;;
27491;SDS011;14927;51.210;6.838;2023-06-10T06:26:52;9.48;;;5.10;;
27491;SDS011;14927;51.210;6.838;2023-06-10T06:29:37;6.30;;;5.18;;
27491;SDS011;14927;51.210;6.838;2023-06-10T06:32:25;6.05;;;4.35;;
27491;SDS011;14927;51.210;6.838;2023-06-10T06:35:15;6.32;;;4.60;;
27491;SDS011;14927;51.210;6.838;2023-06-10T06:38:09;5.57;;;4.47;;
27491;SDS011;14927;51.210;6.838;2023-06-10T06:40:56;7.65;;;4.95;;
27491;SDS011;14927;51.210;6.838;2023-06-10T06:43:49;8.55;;;4.47;;
27491;SDS011;14927;51.210;6.838;2023-06-10T06:46:34;4.97;;;4.30;;
27491;SDS011;14927;51.210;6.838;2023-06-10T06:49:29;7.78;;;4.65;;
27491;SDS011;14927;51.210;6.838;2023-06-10T06:52:19;6.97;;;5.03;;
27491;SDS011;14927;51.210;6.838;2023-06-10T06:55:06;9.48;;;4.68;;
27491;SDS011;14927;51.210;6.838;2023-06-10T06:57:51;9.40;;;5.40;;
27491;SDS011;14927;51.210;6.838;2023-06-10T07:00:39;10.70;;;4.95;;
27491;SDS011;14927;51.210;6.838;2023-06-10T07:03:24;6.38;;;4.68;;
27491;SDS011;14927;51.210;6.838;2023-06-10T07:06:13;7.93;;;4.80;;
27491;SDS011;14927;51.210;6.838;2023-06-10T07:08:57;5.53;;;4.70;;
27491;SDS011;14927;51.210;6.838;2023-06-10T07:11:48;5.35;;;4.38;;
27491;SDS011;14927;51.210;6.838;2023-06-10T07:14:38;5.30;;;4.50;;
27491;SDS011;14927;51.210;6.838;2023-06-10T07:17:29;9.05;;;4.78;;
27491;SDS011;14927;51.210;6.838;2023-06-10T07:20:15;5.25;;;4.50;;
27491;SDS011;14927;51.210;6.838;2023-06-10T07:23:00;13.98;;;5.13;;
27491;SDS011;14927;51.210;6.838;2023-06-10T07:25:45;7.65;;;4.93;;
27491;SDS011;14927;51.210;6.838;2023-06-10T07:28:30;7.03;;;4.80;;
27491;SDS011;14927;51.210;6.838;2023-06-10T07:31:24;7.72;;;4.72;;
27491;SDS011;14927;51.210;6.838;2023-06-10T07:34:10;11.00;;;4.78;;
27491;SDS011;14927;51.210;6.838;2023-06-10T07:36:58;6.28;;;4.30;;
27491;SDS011;14927;51.210;6.838;2023-06-10T07:39:43;7.43;;;4.80;;
27491;SDS011;14927;51.210;6.838;2023-06-10T07:42:32;6.65;;;4.57;;
27491;SDS011;14927;51.210;6.838;2023-06-10T07:45:27;7.00;;;4.68;;
27491;SDS011;14927;51.210;6.838;2023-06-10T07:48:15;7.88;;;4.60;;
27491;SDS011;14927;51.210;6.838;2023-06-10T07:51:03;6.50;;;4.47;;
27491;SDS011;14927;51.210;6.838;2023-06-10T07:53:47;7.82;;;4.72;;
27491;SDS011;14927;51.210;6.838;2023-06-10T07:56:35;5.93;;;4.63;;
27491;SDS011;14927;51.210;6.838;2023-06-10T07:59:21;6.55;;;4.63;;
27491;SDS011;14927;51.210;6.838;2023-06-10T08:02:10;6.68;;;5.25;;
27491;SDS011;14927;51.210;6.838;2023-06-10T08:04:55;6.20;;;4.90;;
27491;SDS011;14927;51.210;6.838;2023-06-10T08:07:43;7.05;;;4.78;;
27491;SDS011;14927;51.210;6.838;2023-06-10T08:10:31;6.47;;;5.28;;
27491;SDS011;14927;51.210;6.838;2023-06-10T08:13:16;6.07;;;5.10;;
27491;SDS011;14927;51.210;6.838;2023-06-10T08:16:00;6.97;;;4.40;;
27491;SDS011;14927;51.210;6.838;2023-06-10T08:18:45;5.28;;;4.65;;
27491;SDS011;14927;51.210;6.838;2023-06-10T08:21:30;6.40;;;4.55;;
27491;SDS011;14927;51.210;6.838;2023-06-10T08:24:17;5.05;;;4.55;;
27491;SDS011;14927;51.210;6.838;2023-06-10T08:27:03;6.90;;;4.80;;
27491;SDS011;14927;51.210;6.838;2023-06-10T08:29:51;5.57;;;4.85;;
27491;SDS011;14927;51.210;6.838;2023-06-10T08:32:44;8.15;;;4.85;;
27491;SDS011;14927;51.210;6.838;2023-06-10T08:35:31;8.70;;;5.10;;
27491;SDS011;14927;51.210;6.838;2023-06-10T08:38:24;5.68;;;5.00;;
27491;SDS011;14927;51.210;6.838;2023-06-10T08:41:11;10.60;;;4.82;;
27491;SDS011;14927;51.210;6.838;2023-06-10T08:46:59;7.68;;;5.50;;
27491;SDS011;14927;51.210;6.838;2023-06-10T08:49:48;8.93;;;4.95;;
27491;SDS011;14927;51.210;6.838;2023-06-10T08:52:46;7.60;;;4.97;;
27491;SDS011;14927;51.210;6.838;2023-06-10T08:55:44;6.00;;;4.72;;
27491;SDS011;14927;51.210;6.838;2023-06-10T08:58:36;9.35;;;5.25;;
27491;SDS011;14927;51.210;6.838;2023-06-10T09:01:28;5.13;;;4.63;;
27491;SDS011;14927;51.210;6.838;2023-06-10T09:04:18;6.68;;;4.90;;
27491;SDS011;14927;51.210;6.838;2023-06-10T09:07:06;10.40;;;4.97;;
27491;SDS011;14927;51.210;6.838;2023-06-10T09:09:54;7.03;;;5.18;;
27491;SDS011;14927;51.210;6.838;2023-06-10T09:12:41;9.48;;;5.18;;
27491;SDS011;14927;51.210;6.838;2023-06-10T09:15:28;13.23;;;4.97;;
27491;SDS011;14927;51.210;6.838;2023-06-10T09:18:32;5.20;;;4.68;;
27491;SDS011;14927;51.210;6.838;2023-06-10T09:21:26;11.13;;;4.50;;
27491;SDS011;14927;51.210;6.838;2023-06-10T09:24:10;7.45;;;4.93;;
27491;SDS011;14927;51.210;6.838;2023-06-10T09:27:04;5.25;;;4.60;;
27491;SDS011;14927;51.210;6.838;2023-06-10T09:29:55;7.25;;;4.38;;
27491;SDS011;14927;51.210;6.838;2023-06-10T09:32:41;6.30;;;4.57;;
27491;SDS011;14927;51.210;6.838;2023-06-10T09:35:28;6.13;;;4.63;;
27491;SDS011;14927;51.210;6.838;2023-06-10T09:38:15;5.93;;;4.75;;
27491;SDS011;14927;51.210;6.838;2023-06-10T09:41:06;7.22;;;4.63;;
27491;SDS011;14927;51.210;6.838;2023-06-10T09:43:59;5.60;;;4.22;;
27491;SDS011;14927;51.210;6.838;2023-06-10T09:47:00;7.72;;;4.45;;
27491;SDS011;14927;51.210;6.838;2023-06-10T09:49:49;5.07;;;4.40;;
27491;SDS011;14927;51.210;6.838;2023-06-10T09:52:37;7.38;;;4.82;;
27491;SDS011;14927;51.210;6.838;2023-06-10T09:55:25;10.30;;;5.70;;
27491;SDS011;14927;51.210;6.838;2023-06-10T09:58:10;7.10;;;4.80;;
27491;SDS011;14927;51.210;6.838;2023-06-10T10:00:57;11.30;;;4.60;;
27491;SDS011;14927;51.210;6.838;2023-06-10T10:03:45;6.40;;;4.63;;
27491;SDS011;14927;51.210;6.838;2023-06-10T10:06:35;7.45;;;4.60;;
27491;SDS011;14927;51.210;6.838;2023-06-10T10:09:21;6.93;;;4.20;;
27491;SDS011;14927;51.210;6.838;2023-06-10T10:12:10;7.03;;;4.70;;
27491;SDS011;14927;51.210;6.838;2023-06-10T10:14:58;7.07;;;4.63;;
27491;SDS011;14927;51.210;6.838;2023-06-10T10:17:49;7.07;;;5.05;;
27491;SDS011;14927;51.210;6.838;2023-06-10T10:20:48;5.53;;;4.70;;
27491;SDS011;14927;51.210;6.838;2023-06-10T10:23:44;7.70;;;4.47;;
27491;SDS011;14927;51.210;6.838;2023-06-10T10:26:50;4.65;;;4.18;;
27491;SDS011;14927;51.210;6.838;2023-06-10T10:29:40;6.63;;;4.40;;
27491;SDS011;14927;51.210;6.838;2023-06-10T10:32:38;6.82;;;4.50;;
27491;SDS011;14927;51.210;6.838;2023-06-10T10:35:39;7.30;;;4.22;;
27491;SDS011;14927;51.210;6.838;2023-06-10T10:38:25;9.02;;;3.85;;
27491;SDS011;14927;51.210;6.838;2023-06-10T10:41:15;5.00;;;4.50;;
27491;SDS011;14927;51.210;6.838;2023-06-10T10:44:05;6.35;;;4.32;;
27491;SDS011;14927;51.210;6.838;2023-06-10T10:46:54;4.38;;;3.75;;
27491;SDS011;14927;51.210;6.838;2023-06-10T10:49:40;5.47;;;4.32;;
27491;SDS011;14927;51.210;6.838;2023-06-10T10:52:51;7.03;;;4.50;;
27491;SDS011;14927;51.210;6.838;2023-06-10T10:55:57;7.80;;;4.40;;
27491;SDS011;14927;51.210;6.838;2023-06-10T10:59:08;5.32;;;4.07;;
27491;SDS011;14927;51.210;6.838;2023-06-10T11:01:57;6.15;;;3.55;;
27491;SDS011;14927;51.210;6.838;2023-06-10T11:04:51;5.55;;;4.30;;
27491;SDS011;14927;51.210;6.838;2023-06-10T11:07:53;5.05;;;4.13;;
27491;SDS011;14927;51.210;6.838;2023-06-10T11:10:52;8.02;;;4.07;;
27491;SDS011;14927;51.210;6.838;2023-06-10T11:13:41;7.10;;;4.53;;
27491;SDS011;14927;51.210;6.838;2023-06-10T11:16:54;5.80;;;3.88;;
27491;SDS011;14927;51.210;6.838;2023-06-10T11:19:47;5.82;;;3.80;;
27491;SDS011;14927;51.210;6.838;2023-06-10T11:22:32;6.93;;;4.35;;
27491;SDS011;14927;51.210;6.838;2023-06-10T11:25:17;5.18;;;3.88;;
27491;SDS011;14927;51.210;6.838;2023-06-10T11:28:27;6.10;;;3.70;;
27491;SDS011;14927;51.210;6.838;2023-06-10T11:31:19;4.95;;;4.15;;
27491;SDS011;14927;51.210;6.838;2023-06-10T11:34:21;5.07;;;4.10;;
27491;SDS011;14927;51.210;6.838;2023-06-10T11:37:08;5.32;;;3.90;;
27491;SDS011;14927;51.210;6.838;2023-06-10T11:39:54;6.07;;;4.40;;
27491;SDS011;14927;51.210;6.838;2023-06-10T11:42:40;6.05;;;4.22;;
27491;SDS011;14927;51.210;6.838;2023-06-10T11:45:28;7.93;;;4.30;;
27491;SDS011;14927;51.210;6.838;2023-06-10T11:48:12;6.70;;;3.80;;
27491;SDS011;14927;51.210;6.838;2023-06-10T11:51:00;6.30;;;4.03;;
27491;SDS011;14927;51.210;6.838;2023-06-10T11:53:50;6.00;;;4.30;;
27491;SDS011;14927;51.210;6.838;2023-06-10T11:56:35;5.00;;;4.38;;
27491;SDS011;14927;51.210;6.838;2023-06-10T11:59:21;9.50;;;4.60;;
27491;SDS011;14927;51.210;6.838;2023-06-10T12:02:17;6.80;;;4.90;;
27491;SDS011;14927;51.210;6.838;2023-06-10T12:05:10;7.70;;;4.10;;
27491;SDS011;14927;51.210;6.838;2023-06-10T12:08:10;4.55;;;3.70;;
27491;SDS011;14927;51.210;6.838;2023-06-10T12:10:56;7.57;;;3.95;;
27491;SDS011;14927;51.210;6.838;2023-06-10T12:13:46;8.80;;;4.30;;
27491;SDS011;14927;51.210;6.838;2023-06-10T12:16:39;4.78;;;3.97;;
27491;SDS011;14927;51.210;6.838;2023-06-10T12:19:37;6.63;;;4.35;;
27491;SDS011;14927;51.210;6.838;2023-06-10T12:22:23;8.35;;;4.45;;
27491;SDS011;14927;51.210;6.838;2023-06-10T12:25:09;7.38;;;4.68;;
27491;SDS011;14927;51.210;6.838;2023-06-10T12:28:00;5.93;;;4.15;;
27491;SDS011;14927;51.210;6.838;2023-06-10T12:30:45;5.10;;;4.18;;
27491;SDS011;14927;51.210;6.838;2023-06-10T12:33:29;7.00;;;4.70;;
27491;SDS011;14927;51.210;6.838;2023-06-10T12:36:20;5.70;;;4.25;;
27491;SDS011;14927;51.210;6.838;2023-06-10T12:39:08;4.95;;;4.20;;
27491;SDS011;14927;51.210;6.838;2023-06-10T12:41:53;7.38;;;4.25;;
27491;SDS011;14927;51.210;6.838;2023-06-10T12:44:39;6.05;;;4.20;;
27491;SDS011;14927;51.210;6.838;2023-06-10T12:47:31;6.55;;;4.50;;
27491;SDS011;14927;51.210;6.838;2023-06-10T12:50:24;7.60;;;4.55;;
27491;SDS011;14927;51.210;6.838;2023-06-10T12:53:09;7.97;;;4.60;;
27491;SDS011;14927;51.210;6.838;2023-06-10T12:55:57;5.70;;;3.80;;
27491;SDS011;14927;51.210;6.838;2023-06-10T12:58:43;5.15;;;4.65;;
27491;SDS011;14927;51.210;6.838;2023-06-10T13:01:28;5.82;;;4.32;;
27491;SDS011;14927;51.210;6.838;2023-06-10T13:04:19;6.07;;;4.15;;
27491;SDS011;14927;51.210;6.838;2023-06-10T13:07:07;7.05;;;4.20;;
27491;SDS011;14927;51.210;6.838;2023-06-10T13:09:52;6.22;;;4.07;;
27491;SDS011;14927;51.210;6.838;2023-06-10T13:12:37;4.65;;;4.03;;
27491;SDS011;14927;51.210;6.838;2023-06-10T13:15:28;4.22;;;3.83;;
27491;SDS011;14927;51.210;6.838;2023-06-10T13:18:13;5.20;;;4.18;;
27491;SDS011;14927;51.210;6.838;2023-06-10T13:21:05;6.20;;;4.45;;
27491;SDS011;14927;51.210;6.838;2023-06-10T13:23:55;5.38;;;3.80;;
27491;SDS011;14927;51.210;6.838;2023-06-10T13:26:43;4.63;;;4.15;;
27491;SDS011;14927;51.210;6.838;2023-06-10T13:29:31;4.22;;;3.83;;
27491;SDS011;14927;51.210;6.838;2023-06-10T13:35:05;5.13;;;3.90;;
27491;SDS011;14927;51.210;6.838;2023-06-10T13:37:51;6.70;;;4.35;;
27491;SDS011;14927;51.210;6.838;2023-06-10T13:40:39;6.85;;;4.10;;
27491;SDS011;14927;51.210;6.838;2023-06-10T13:43:23;9.63;;;4.03;;
27491;SDS011;14927;51.210;6.838;2023-06-10T13:46:09;6.00;;;4.22;;
27491;SDS011;14927;51.210;6.838;2023-06-10T13:48:57;7.18;;;3.90;;
27491;SDS011;14927;51.210;6.838;2023-06-10T13:51:49;4.60;;;4.18;;
27491;SDS011;14927;51.210;6.838;2023-06-10T13:54:33;6.82;;;4.30;;
27491;SDS011;14927;51.210;6.838;2023-06-10T13:57:22;5.65;;;4.40;;
27491;SDS011;14927;51.210;6.838;2023-06-10T14:00:07;5.95;;;4.22;;
27491;SDS011;14927;51.210;6.838;2023-06-10T14:02:56;5.20;;;4.35;;
27491;SDS011;14927;51.210;6.838;2023-06-10T14:05:43;5.10;;;4.00;;
27491;SDS011;14927;51.210;6.838;2023-06-10T14:08:28;5.80;;;4.10;;
27491;SDS011;14927;51.210;6.838;2023-06-10T14:11:15;4.88;;;4.13;;
27491;SDS011;14927;51.210;6.838;2023-06-10T14:14:00;9.38;;;4.07;;
27491;SDS011;14927;51.210;6.838;2023-06-10T14:16:49;6.78;;;5.10;;
27491;SDS011;14927;51.210;6.838;2023-06-10T14:19:39;6.63;;;4.28;;
27491;SDS011;14927;51.210;6.838;2023-06-10T14:22:24;4.45;;;4.03;;
27491;SDS011;14927;51.210;6.838;2023-06-10T14:25:12;7.68;;;3.95;;
27491;SDS011;14927;51.210;6.838;2023-06-10T14:27:58;15.40;;;3.80;;
27491;SDS011;14927;51.210;6.838;2023-06-10T14:30:43;7.88;;;4.07;;
27491;SDS011;14927;51.210;6.838;2023-06-10T14:33:33;5.63;;;3.65;;
27491;SDS011;14927;51.210;6.838;2023-06-10T14:36:21;4.50;;;3.50;;
27491;SDS011;14927;51.210;6.838;2023-06-10T14:39:11;6.95;;;3.88;;
27491;SDS011;14927;51.210;6.838;2023-06-10T14:41:59;5.85;;;3.90;;
27491;SDS011;14927;51.210;6.838;2023-06-10T14:44:48;7.35;;;4.53;;
27491;SDS011;14927;51.210;6.838;2023-06-10T14:47:36;4.72;;;4.22;;
27491;SDS011;14927;51.210;6.838;2023-06-10T14:50:25;8.98;;;4.32;;
27491;SDS011;14927;51.210;6.838;2023-06-10T14:53:13;7.32;;;3.67;;
27491;SDS011;14927;51.210;6.838;2023-06-10T14:55:57;4.53;;;3.92;;
27491;SDS011;14927;51.210;6.838;2023-06-10T14:58:46;9.05;;;4.32;;
27491;SDS011;14927;51.210;6.838;2023-06-10T15:01:34;7.18;;;4.25;;
27491;SDS011;14927;51.210;6.838;2023-06-10T15:04:22;6.97;;;4.10;;
27491;SDS011;14927;51.210;6.838;2023-06-10T15:07:12;7.65;;;4.22;;
27491;SDS011;14927;51.210;6.838;2023-06-10T15:09:59;4.78;;;3.70;;
27491;SDS011;14927;51.210;6.838;2023-06-10T15:12:45;6.13;;;3.78;;
27491;SDS011;14927;51.210;6.838;2023-06-10T15:15:30;5.88;;;4.15;;
27491;SDS011;14927;51.210;6.838;2023-06-10T15:18:21;8.88;;;3.97;;
27491;SDS011;14927;51.210;6.838;2023-06-10T15:21:06;10.82;;;4.07;;
27491;SDS011;14927;51.210;6.838;2023-06-10T15:23:51;5.75;;;4.15;;
27491;SDS011;14927;51.210;6.838;2023-06-10T15:26:39;5.70;;;3.67;;
27491;SDS011;14927;51.210;6.838;2023-06-10T15:29:24;4.78;;;3.75;;
27491;SDS011;14927;51.210;6.838;2023-06-10T15:32:11;7.38;;;4.15;;
27491;SDS011;14927;51.210;6.838;2023-06-10T15:34:56;6.03;;;4.93;;
27491;SDS011;14927;51.210;6.838;2023-06-10T15:37:45;7.88;;;5.05;;
27491;SDS011;14927;51.210;6.838;2023-06-10T15:40:31;5.22;;;4.20;;
27491;SDS011;14927;51.210;6.838;2023-06-10T15:43:16;8.38;;;4.63;;
27491;SDS011;14927;51.210;6.838;2023-06-10T15:46:04;7.20;;;5.20;;
27491;SDS011;14927;51.210;6.838;2023-06-10T15:48:49;6.35;;;3.88;;
27491;SDS011;14927;51.210;6.838;2023-06-10T15:51:37;6.05;;;4.00;;
27491;SDS011;14927;51.210;6.838;2023-06-10T15:54:24;6.43;;;4.15;;
27491;SDS011;14927;51.210;6.838;2023-06-10T15:57:12;5.43;;;3.83;;
27491;SDS011;14927;51.210;6.838;2023-06-10T15:59:58;9.60;;;4.45;;
27491;SDS011;14927;51.210;6.838;2023-06-10T16:02:44;6.95;;;4.07;;
27491;SDS011;14927;51.210;6.838;2023-06-10T16:05:35;9.48;;;4.43;;
27491;SDS011;14927;51.210;6.838;2023-06-10T16:08:20;5.88;;;3.70;;
27491;SDS011;14927;51.210;6.838;2023-06-10T16:11:07;6.97;;;3.92;;
27491;SDS011;14927;51.210;6.838;2023-06-10T16:13:53;4.70;;;3.90;;
27491;SDS011;14927;51.210;6.838;2023-06-10T16:16:39;4.22;;;3.58;;
27491;SDS011;14927;51.210;6.838;2023-06-10T16:19:24;4.35;;;3.58;;
27491;SDS011;14927;51.210;6.838;2023-06-10T16:22:13;8.93;;;3.70;;
27491;SDS011;14927;51.210;6.838;2023-06-10T16:24:58;4.50;;;3.78;;
27491;SDS011;14927;51.210;6.838;2023-06-10T16:27:43;5.32;;;3.75;;
27491;SDS011;14927;51.210;6.838;2023-06-10T16:30:28;5.63;;;3.75;;
27491;SDS011;14927;51.210;6.838;2023-06-10T16:33:14;7.85;;;4.88;;
27491;SDS011;14927;51.210;6.838;2023-06-10T16:36:00;7.47;;;4.55;;
27491;SDS011;14927;51.210;6.838;2023-06-10T16:38:51;6.57;;;4.47;;
27491;SDS011;14927;51.210;6.838;2023-06-10T16:41:49;9.55;;;4.30;;
27491;SDS011;14927;51.210;6.838;2023-06-10T16:44:36;7.07;;;4.43;;
27491;SDS011;14927;51.210;6.838;2023-06-10T16:47:22;5.30;;;3.08;;
27491;SDS011;14927;51.210;6.838;2023-06-10T16:50:10;3.58;;;3.20;;
27491;SDS011;14927;51.210;6.838;2023-06-10T16:52:58;4.82;;;2.88;;
27491;SDS011;14927;51.210;6.838;2023-06-10T16:55:46;3.97;;;3.10;;
27491;SDS011;14927;51.210;6.838;2023-06-10T16:58:32;4.90;;;2.88;;
27491;SDS011;14927;51.210;6.838;2023-06-10T17:01:25;6.32;;;3.70;;